This is the latest recevied weather packets stored in our database for station/object F5LKO-13. If no packets are shown the sender has not sent any weather packets the latest 1 day(s).
| Time | Temp. | Humidity | Pressure | Rain* | Wind** | Luminosity | Snow |
|---|---|---|---|---|---|---|---|
| 1778071973 | 17.22° C | 99% | 1015.2 hPa | 0 mm | - | 27 W/m² | - |
| 1778068300 | 16.67° C | 99% | 1014.9 hPa | 0 mm | - | 17 W/m² | - |
| 1778067994 | 16.11° C | 99% | 1014.9 hPa | 0 mm | - | 11 W/m² | - |
| 1778067076 | 17.22° C | 99% | 1015 hPa | 0 mm | - | 20 W/m² | - |
| 1778066770 | 18.33° C | 99% | 1015 hPa | 0 mm | - | 6 W/m² | - |
| 1778066464 | 20° C | 99% | 1014.9 hPa | 0 mm | - | 5 W/m² | - |
| 1778066158 | 21.67° C | 99% | 1014.9 hPa | 0 mm | - | 12 W/m² | - |
| 1778065240 | 20.56° C | 99% | 1014.8 hPa | 0 mm | - | 76 W/m² | - |
| 1778064933 | 19.44° C | 99% | 1014.8 hPa | 0.51 mm | - | 91 W/m² | - |
| 1778062188 | 12.78° C | 99% | 1014.9 hPa | 0.51 mm | - | 5 W/m² | - |
| 1778060649 | 12.78° C | 99% | 1014.6 hPa | 4.57 mm | - | 1 W/m² | - |
| 1778060037 | 12.78° C | 99% | 1014.5 hPa | 4.06 mm | - | 0 W/m² | - |
| 1778059731 | 12.78° C | 99% | 1014.4 hPa | 3.3 mm | - | 1 W/m² | - |
| 1778059425 | 12.78° C | 99% | 1014.5 hPa | 2.79 mm | - | 0 W/m² | - |
| 1778059119 | 12.78° C | 99% | 1014.3 hPa | 1.52 mm | - | 1 W/m² | - |
| 1778058813 | 12.78° C | 99% | 1014.3 hPa | 0 mm | - | 2 W/m² | - |
| 1778058200 | 12.78° C | 99% | 1014.3 hPa | 0 mm | - | 4 W/m² | - |
| 1778057282 | 12.78° C | 99% | 1014.2 hPa | 2.79 mm | - | 0 W/m² | - |
| 1778056976 | 12.78° C | 99% | 1014.2 hPa | 2.79 mm | - | 0 W/m² | - |
| 1778056678 | 12.78° C | 99% | 1014.1 hPa | 2.29 mm | - | 0 W/m² | - |
| 1778056058 | 13.89° C | 99% | 1014 hPa | 0.51 mm | - | 0 W/m² | - |
| 1778055752 | 13.89° C | 99% | 1014 hPa | 0 mm | - | 3 W/m² | - |
| 1778054843 | 12.78° C | 99% | 1014.1 hPa | 0 mm | - | 1 W/m² | - |
| 1778054221 | 12.78° C | 99% | 1014 hPa | 2.79 mm | - | 0 W/m² | - |
| 1778053915 | 13.33° C | 99% | 1014 hPa | 2.79 mm | - | 0 W/m² | - |
* Rain latest hour (hover to see other rain measurements)
** Current wind speed in m/s (hover to see current wind gust speed)